Time,TemperatureF,DewpointF,PressureIn,WindDirection,WindDirectionDegrees,WindSpeedMPH,WindSpeedGustMPH,Humidity,HourlyPrecipIn,Conditions,Clouds,dailyrainin,SolarRadiationWatts/m^2,SoftwareType,DateUTC
2013-03-29 00:22:00,66.0,-29.0,-100.00,East,91,26.0,47.0,0,0.00,,,-99.99,0.000000,,2013-03-29 10:22:00,
2013-03-29 00:33:00,66.0,-29.0,-100.00,East,91,26.0,47.0,0,0.00,,,-99.99,0.000000,,2013-03-29 10:33:00,
2013-03-29 00:42:00,66.0,-29.0,-100.00,East,91,26.0,47.0,0,0.00,,,-99.99,0.000000,,2013-03-29 10:42:00,
2013-03-29 00:52:00,67.0,-29.0,-100.00,WSW,248,19.0,50.0,0,0.00,,,-99.99,0.000000,,2013-03-29 10:52:00,
2013-03-29 01:12:00,67.0,-29.0,-100.00,WSW,248,19.0,50.0,0,0.00,,,-99.99,0.000000,,2013-03-29 11:12:00,
2013-03-29 01:23:00,67.0,-29.0,-100.00,WSW,248,19.0,50.0,0,0.00,,,-99.99,0.000000,,2013-03-29 11:23:00,
2013-03-29 01:32:00,67.0,-29.0,-100.00,WSW,248,19.0,50.0,0,0.00,,,-99.99,0.000000,,2013-03-29 11:32:00,
2013-03-29 01:42:00,67.0,-29.0,-100.00,WSW,248,19.0,50.0,0,0.00,,,-99.99,0.000000,,2013-03-29 11:42:00,
2013-03-29 02:22:00,66.0,-29.0,-100.00,West,277,12.0,47.0,0,0.00,,,-99.99,0.000000,,2013-03-29 12:22:00,
2013-03-29 02:32:00,66.0,-29.0,-100.00,West,277,12.0,47.0,0,0.00,,,-99.99,0.000000,,2013-03-29 12:32:00,
2013-03-29 02:42:00,66.0,-29.0,-100.00,West,277,12.0,47.0,0,0.00,,,-99.99,0.000000,,2013-03-29 12:42:00,
2013-03-29 02:51:00,66.0,-29.0,-100.00,West,277,12.0,47.0,0,0.00,,,-99.99,0.000000,,2013-03-29 12:51:00,
2013-03-29 02:52:00,64.0,-31.0,-100.00,ESE,108,20.0,31.0,0,0.00,,,-99.99,0.000000,,2013-03-29 12:52:00,
2013-03-29 03:22:00,64.0,-31.0,-100.00,ESE,108,20.0,31.0,0,0.00,,,-99.99,0.000000,,2013-03-29 13:22:00,
2013-03-29 03:32:00,64.0,-31.0,-100.00,ESE,108,20.0,31.0,0,0.00,,,-99.99,0.000000,,2013-03-29 13:32:00,
2013-03-29 03:42:00,64.0,-31.0,-100.00,ESE,108,20.0,31.0,0,0.00,,,-99.99,0.000000,,2013-03-29 13:42:00,
2013-03-29 03:52:00,65.0,-30.0,-100.00,WNW,297,2.0,125.0,0,0.00,,,-99.99,0.000000,,2013-03-29 13:52:00,
2013-03-29 04:22:00,65.0,-30.0,-100.00,WNW,297,2.0,125.0,0,0.00,,,-99.99,0.000000,,2013-03-29 14:22:00,
2013-03-29 04:32:00,65.0,-30.0,-100.00,WNW,297,2.0,125.0,0,0.00,,,-99.99,0.000000,,2013-03-29 14:32:00,
2013-03-29 04:42:00,65.0,-30.0,-100.00,WNW,297,2.0,125.0,0,0.00,,,-99.99,0.000000,,2013-03-29 14:42:00,
2013-03-29 04:52:00,63.0,-31.0,-100.00,SW,235,3.0,28.0,0,0.00,,,-99.99,0.000000,,2013-03-29 14:52:00,
2013-03-29 05:22:00,63.0,-31.0,-100.00,SW,235,3.0,28.0,0,0.00,,,-99.99,0.000000,,2013-03-29 15:22:00,
2013-03-29 05:33:00,63.0,-31.0,-100.00,SW,235,3.0,28.0,0,0.00,,,-99.99,0.000000,,2013-03-29 15:33:00,
2013-03-29 05:42:00,63.0,-31.0,-100.00,SW,235,3.0,28.0,0,0.00,,,-99.99,0.000000,,2013-03-29 15:42:00,
2013-03-29 05:52:00,65.0,-30.0,-100.00,WNW,295,17.0,33.0,0,0.00,,,-99.99,0.000000,,2013-03-29 15:52:00,
2013-03-29 06:12:00,65.0,-30.0,-100.00,WNW,295,17.0,33.0,0,0.00,,,-99.99,0.000000,,2013-03-29 16:12:00,
2013-03-29 06:23:00,65.0,-30.0,-100.00,WNW,295,17.0,33.0,0,0.00,,,-99.99,0.000000,,2013-03-29 16:23:00,
2013-03-29 06:32:00,65.0,-30.0,-100.00,WNW,295,17.0,33.0,0,0.00,,,-99.99,0.000000,,2013-03-29 16:32:00,
2013-03-29 06:42:00,65.0,-30.0,-100.00,WNW,295,17.0,33.0,0,0.00,,,-99.99,0.000000,,2013-03-29 16:42:00,
2013-03-29 06:52:00,63.0,-31.0,-100.00,East,96,2.0,125.0,0,0.00,,,-99.99,0.000000,,2013-03-29 16:52:00,
2013-03-29 07:22:00,63.0,-31.0,-100.00,East,96,2.0,125.0,0,0.00,,,-99.99,0.000000,,2013-03-29 17:22:00,
2013-03-29 07:33:00,63.0,-31.0,-100.00,East,96,2.0,125.0,0,0.00,,,-99.99,0.000000,,2013-03-29 17:33:00,
2013-03-29 07:42:00,63.0,-31.0,-100.00,East,96,2.0,125.0,0,0.00,,,-99.99,0.000000,,2013-03-29 17:42:00,
2013-03-29 08:12:00,67.0,-29.0,-100.00,NNW,344,15.0,47.0,0,0.00,,,0.08,30.000000,,2013-03-29 18:12:00,
2013-03-29 08:22:00,67.0,-29.0,-100.00,NNW,344,15.0,47.0,0,0.00,,,0.08,30.000000,,2013-03-29 18:22:00,
2013-03-29 08:32:00,67.0,-29.0,-100.00,NNW,344,15.0,47.0,0,0.00,,,0.08,30.000000,,2013-03-29 18:32:00,
2013-03-29 08:42:00,67.0,-29.0,-100.00,NNW,344,15.0,47.0,0,0.00,,,0.08,30.000000,,2013-03-29 18:42:00,
2013-03-29 08:51:00,67.0,-29.0,-100.00,NNW,344,15.0,47.0,0,0.00,,,0.08,30.000000,,2013-03-29 18:51:00,
2013-03-29 08:52:00,69.0,-28.0,-100.00,WNW,289,5.0,49.0,0,0.00,,,0.08,214.000000,,2013-03-29 18:52:00,
2013-03-29 09:12:00,69.0,-28.0,-100.00,WNW,289,5.0,49.0,0,0.00,,,0.08,214.000000,,2013-03-29 19:12:00,
2013-03-29 09:22:00,69.0,-28.0,-100.00,WNW,289,5.0,49.0,0,0.00,,,0.08,214.000000,,2013-03-29 19:22:00,
2013-03-29 09:32:00,69.0,-28.0,-100.00,WNW,289,5.0,49.0,0,0.00,,,0.08,214.000000,,2013-03-29 19:32:00,
2013-03-29 09:42:00,69.0,-28.0,-100.00,WNW,289,5.0,49.0,0,0.00,,,0.08,214.000000,,2013-03-29 19:42:00,
2013-03-29 10:12:00,69.0,-28.0,-100.00,NNE,26,9.0,31.0,0,0.00,,,0.08,458.000000,,2013-03-29 20:12:00,
2013-03-29 10:22:00,69.0,-28.0,-100.00,NNE,26,9.0,31.0,0,0.00,,,0.08,458.000000,,2013-03-29 20:22:00,
2013-03-29 10:32:00,69.0,-28.0,-100.00,NNE,26,9.0,31.0,0,0.00,,,0.08,458.000000,,2013-03-29 20:32:00,
2013-03-29 10:42:00,69.0,-28.0,-100.00,NNE,26,9.0,31.0,0,0.00,,,0.08,458.000000,,2013-03-29 20:42:00,
2013-03-29 10:51:00,69.0,-28.0,-100.00,NNE,26,9.0,31.0,0,0.00,,,0.08,458.000000,,2013-03-29 20:51:00,
2013-03-29 10:52:00,70.0,-27.0,-100.00,North,7,9.0,32.0,0,0.00,,,0.08,386.000000,,2013-03-29 20:52:00,
2013-03-29 11:22:00,70.0,-27.0,-100.00,North,7,9.0,32.0,0,0.00,,,0.08,386.000000,,2013-03-29 21:22:00,
2013-03-29 11:32:00,70.0,-27.0,-100.00,North,7,9.0,32.0,0,0.00,,,0.08,386.000000,,2013-03-29 21:32:00,
2013-03-29 11:42:00,70.0,-27.0,-100.00,North,7,9.0,32.0,0,0.00,,,0.08,386.000000,,2013-03-29 21:42:00,
2013-03-29 11:52:00,71.0,-26.0,-100.00,SSW,206,9.0,28.0,0,0.00,,,0.08,442.000000,,2013-03-29 21:52:00,
2013-03-29 12:12:00,71.0,-26.0,-100.00,SSW,206,9.0,28.0,0,0.00,,,0.08,442.000000,,2013-03-29 22:12:00,
2013-03-29 12:22:00,71.0,-26.0,-100.00,SSW,206,9.0,28.0,0,0.00,,,0.08,442.000000,,2013-03-29 22:22:00,
2013-03-29 12:33:00,71.0,-26.0,-100.00,SSW,206,9.0,28.0,0,0.00,,,0.08,442.000000,,2013-03-29 22:33:00,
2013-03-29 12:42:00,71.0,-26.0,-100.00,SSW,206,9.0,28.0,0,0.00,,,0.08,442.000000,,2013-03-29 22:42:00,
2013-03-29 12:52:00,68.0,-28.0,-100.00,SW,226,9.0,28.0,0,0.00,,,0.08,129.000000,,2013-03-29 22:52:00,
2013-03-29 13:22:00,68.0,-28.0,-100.00,SW,226,9.0,28.0,0,0.00,,,0.08,129.000000,,2013-03-29 23:22:00,
2013-03-29 13:32:00,68.0,-28.0,-100.00,SW,226,9.0,28.0,0,0.00,,,0.08,129.000000,,2013-03-29 23:32:00,
2013-03-29 13:42:00,68.0,-28.0,-100.00,SW,226,9.0,28.0,0,0.00,,,0.08,129.000000,,2013-03-29 23:42:00,
2013-03-29 13:52:00,67.0,-29.0,-100.00,SSE,159,12.0,52.0,0,0.01,,,0.09,217.000000,,2013-03-29 23:52:00,
2013-03-29 14:12:00,67.0,-29.0,-100.00,SSE,159,12.0,52.0,0,0.01,,,0.09,217.000000,,2013-03-30 00:12:00,
2013-03-29 14:22:00,67.0,-29.0,-100.00,SSE,159,12.0,52.0,0,0.01,,,0.09,217.000000,,2013-03-30 00:22:00,
2013-03-29 14:32:00,67.0,-29.0,-100.00,SSE,159,12.0,52.0,0,0.01,,,0.09,217.000000,,2013-03-30 00:32:00,
2013-03-29 14:42:00,67.0,-29.0,-100.00,SSE,159,12.0,52.0,0,0.01,,,0.09,217.000000,,2013-03-30 00:42:00,
2013-03-29 14:52:00,66.0,-29.0,-100.00,NNE,23,16.0,46.0,0,0.12,,,0.21,129.000000,,2013-03-30 00:52:00,
2013-03-29 15:12:00,66.0,-29.0,-100.00,NNE,23,16.0,46.0,0,0.12,,,0.21,129.000000,,2013-03-30 01:12:00,
2013-03-29 15:22:00,66.0,-29.0,-100.00,NNE,23,16.0,46.0,0,0.12,,,0.21,129.000000,,2013-03-30 01:22:00,
2013-03-29 15:32:00,66.0,-29.0,-100.00,NNE,23,16.0,46.0,0,0.12,,,0.21,129.000000,,2013-03-30 01:32:00,
2013-03-29 15:42:00,66.0,-29.0,-100.00,NNE,23,16.0,46.0,0,0.12,,,0.21,129.000000,,2013-03-30 01:42:00,
2013-03-29 15:52:00,67.0,-29.0,-100.00,North,7,9.0,40.0,0,0.04,,,0.24,309.000000,,2013-03-30 01:52:00,
2013-03-29 16:22:00,67.0,-29.0,-100.00,North,7,9.0,40.0,0,0.04,,,0.24,309.000000,,2013-03-30 02:22:00,
2013-03-29 16:32:00,67.0,-29.0,-100.00,North,7,9.0,40.0,0,0.04,,,0.24,309.000000,,2013-03-30 02:32:00,
2013-03-29 16:42:00,67.0,-29.0,-100.00,North,7,9.0,40.0,0,0.04,,,0.24,309.000000,,2013-03-30 02:42:00,
2013-03-29 16:52:00,69.0,-28.0,-100.00,NNE,28,29.0,48.0,0,0.01,,,0.25,328.000000,,2013-03-30 02:52:00,
2013-03-29 17:12:00,69.0,-28.0,-100.00,NNE,28,29.0,48.0,0,0.01,,,0.25,328.000000,,2013-03-30 03:12:00,
2013-03-29 17:22:00,69.0,-28.0,-100.00,NNE,28,29.0,48.0,0,0.01,,,0.25,328.000000,,2013-03-30 03:22:00,
2013-03-29 17:33:00,69.0,-28.0,-100.00,NNE,28,29.0,48.0,0,0.01,,,0.25,328.000000,,2013-03-30 03:33:00,
2013-03-29 17:43:00,69.0,-28.0,-100.00,NNE,28,29.0,48.0,0,0.01,,,0.25,328.000000,,2013-03-30 03:43:00,
2013-03-29 17:52:00,67.0,-29.0,-100.00,NNE,30,20.0,43.0,0,0.00,,,0.25,259.000000,,2013-03-30 03:52:00,
2013-03-29 18:12:00,67.0,-29.0,-100.00,NNE,30,20.0,43.0,0,0.00,,,0.25,259.000000,,2013-03-30 04:12:00,
2013-03-29 18:23:00,67.0,-29.0,-100.00,NNE,30,20.0,43.0,0,0.00,,,0.25,259.000000,,2013-03-30 04:23:00,
2013-03-29 18:32:00,67.0,-29.0,-100.00,NNE,30,20.0,43.0,0,0.00,,,0.25,259.000000,,2013-03-30 04:32:00,
2013-03-29 18:42:00,67.0,-29.0,-100.00,NNE,30,20.0,43.0,0,0.00,,,0.25,259.000000,,2013-03-30 04:42:00,
2013-03-29 19:12:00,67.0,-29.0,-100.00,WNW,291,12.0,43.0,0,0.00,,,0.19,175.000000,,2013-03-30 05:12:00,
2013-03-29 19:22:00,67.0,-29.0,-100.00,WNW,291,12.0,43.0,0,0.00,,,0.19,175.000000,,2013-03-30 05:22:00,
2013-03-29 19:32:00,67.0,-29.0,-100.00,WNW,291,12.0,43.0,0,0.00,,,0.19,175.000000,,2013-03-30 05:32:00,
2013-03-29 19:42:00,67.0,-29.0,-100.00,WNW,291,12.0,43.0,0,0.00,,,0.19,175.000000,,2013-03-30 05:42:00,
2013-03-29 19:51:00,67.0,-29.0,-100.00,WNW,291,12.0,43.0,0,0.00,,,0.19,175.000000,,2013-03-30 05:51:00,
2013-03-29 19:52:00,66.0,-29.0,-100.00,NE,46,10.0,43.0,0,0.00,,,0.18,9.000000,,2013-03-30 05:52:00,
2013-03-29 20:11:00,66.0,-29.0,-100.00,NE,46,10.0,43.0,0,0.00,,,0.18,9.000000,,2013-03-30 06:11:00,
2013-03-29 20:22:00,66.0,-29.0,-100.00,NE,46,10.0,43.0,0,0.00,,,0.18,9.000000,,2013-03-30 06:22:00,
2013-03-29 20:32:00,66.0,-29.0,-100.00,NE,46,10.0,43.0,0,0.00,,,0.18,9.000000,,2013-03-30 06:32:00,
2013-03-29 20:42:00,66.0,-29.0,-100.00,NE,46,10.0,43.0,0,0.00,,,0.18,9.000000,,2013-03-30 06:42:00,
2013-03-29 20:52:00,66.0,-29.0,-100.00,SSW,208,17.0,48.0,0,0.00,,,0.18,0.000000,,2013-03-30 06:52:00,
2013-03-29 21:12:00,66.0,-29.0,-100.00,SSW,208,17.0,48.0,0,0.00,,,0.18,0.000000,,2013-03-30 07:12:00,
2013-03-29 21:22:00,66.0,-29.0,-100.00,SSW,208,17.0,48.0,0,0.00,,,0.18,0.000000,,2013-03-30 07:22:00,
2013-03-29 21:32:00,66.0,-29.0,-100.00,SSW,208,17.0,48.0,0,0.00,,,0.18,0.000000,,2013-03-30 07:32:00,
2013-03-29 21:42:00,66.0,-29.0,-100.00,SSW,208,17.0,48.0,0,0.00,,,0.18,0.000000,,2013-03-30 07:42:00,
2013-03-29 21:52:00,66.0,-29.0,-100.00,South,174,9.0,50.0,0,0.00,,,0.18,0.000000,,2013-03-30 07:52:00,
2013-03-29 22:12:00,66.0,-29.0,-100.00,South,174,9.0,50.0,0,0.00,,,0.18,0.000000,,2013-03-30 08:12:00,
2013-03-29 22:21:00,66.0,-29.0,-100.00,South,174,9.0,50.0,0,0.00,,,0.18,0.000000,,2013-03-30 08:21:00,
2013-03-29 22:32:00,66.0,-29.0,-100.00,South,174,9.0,50.0,0,0.00,,,0.18,0.000000,,2013-03-30 08:32:00,
2013-03-29 22:42:00,66.0,-29.0,-100.00,South,174,9.0,50.0,0,0.00,,,0.18,0.000000,,2013-03-30 08:42:00,
2013-03-29 22:52:00,66.0,-29.0,-100.00,NW,312,12.0,39.0,0,0.00,,,0.18,0.000000,,2013-03-30 08:52:00,
2013-03-29 23:22:00,66.0,-29.0,-100.00,NW,312,12.0,39.0,0,0.00,,,0.18,0.000000,,2013-03-30 09:22:00,
2013-03-29 23:33:00,66.0,-29.0,-100.00,NW,312,12.0,39.0,0,0.00,,,0.18,0.000000,,2013-03-30 09:33:00,
2013-03-29 23:42:00,66.0,-29.0,-100.00,NW,312,12.0,39.0,0,0.00,,,0.18,0.000000,,2013-03-30 09:42:00,
2013-03-29 23:52:00,66.0,-29.0,-100.00,NE,53,10.0,41.0,0,0.00,,,0.18,0.000000,,2013-03-30 09:52:00,